CheckWX is a tool to help pilots better visualize weather data.  It is not intended as a substitute for an official pre-flight weather briefing.

05:48:33 UTC

KSDF METAR
Louisville International-Standiford Field Airport
Louisville, Kentucky, USA
Current

53 mins ago

KSDF 050456Z 35008KT 10SM OVC130 13/09 A3004 RMK AO2 SLP170 OCNL BINOVC T01280089 402440111
Observed
Apr-5 @ 04:56 UTC
Wind
  • 350° at 8 KTS
Visibility
Flight Rules
VFR
Cloud Levels
  • Overcast at 13,000' AGL
Dewpoint
C / 48°F
Humidity
77%
Altimeter
30.04" Hg
Pressure
1017.32 hPa
Previous

2 hours ago

KSDF 050356Z 01008KT 10SM SCT100 OVC140 14/09 A3004 RMK AO2 SLP170 T01440094
Observed
Apr-5 @ 03:56 UTC
Wind
  • 010° at 8 KTS
Visibility
Flight Rules
VFR
Cloud Levels
  • Scattered at 10,000' AGL
  • Overcast at 14,000' AGL
Temperature
14°C / 57°F
Dewpoint
C / 48°F
Humidity
72%
Altimeter
30.04" Hg
Pressure
1017.32 hPa
Previous

3 hours ago

KSDF 050256Z 01007KT 10SM SCT110 OVC140 16/10 A3004 RMK AO2 SLP169 T01610100 53015
Observed
Apr-5 @ 02:56 UTC
Wind
  • 010° at 7 KTS
Visibility
Flight Rules
VFR
Cloud Levels
  • Scattered at 11,000' AGL
  • Overcast at 14,000' AGL
Temperature
16°C / 61°F
Dewpoint
10°C / 50°F
Humidity
68%
Altimeter
30.04" Hg
Pressure
1017.32 hPa